sensor_id;sensor_type;location;lat;lon;timestamp;pressure;altitude;pressure_sealevel;temperature;humidity
17054;BME280;8643;48.824;11.422;2023-08-20T00:01:31;97281.00;;;21.34;100.00
17054;BME280;8643;48.824;11.422;2023-08-20T00:04:02;97286.19;;;21.32;100.00
17054;BME280;8643;48.824;11.422;2023-08-20T00:06:31;97281.78;;;21.34;100.00
17054;BME280;8643;48.824;11.422;2023-08-20T00:09:00;97280.59;;;21.28;100.00
17054;BME280;8643;48.824;11.422;2023-08-20T00:11:30;97284.19;;;21.29;100.00
17054;BME280;8643;48.824;11.422;2023-08-20T00:13:58;97278.22;;;21.30;100.00
17054;BME280;8643;48.824;11.422;2023-08-20T00:16:27;97284.56;;;21.23;100.00
17054;BME280;8643;48.824;11.422;2023-08-20T00:18:57;97280.19;;;21.19;100.00
17054;BME280;8643;48.824;11.422;2023-08-20T00:21:27;97280.19;;;21.22;100.00
17054;BME280;8643;48.824;11.422;2023-08-20T00:23:57;97272.22;;;21.21;100.00
17054;BME280;8643;48.824;11.422;2023-08-20T00:26:26;97280.19;;;21.19;100.00
17054;BME280;8643;48.824;11.422;2023-08-20T00:28:55;97269.84;;;21.16;100.00
17054;BME280;8643;48.824;11.422;2023-08-20T00:31:23;97273.41;;;21.13;100.00
17054;BME280;8643;48.824;11.422;2023-08-20T00:33:52;97275.00;;;21.14;100.00
17054;BME280;8643;48.824;11.422;2023-08-20T00:36:35;97274.63;;;21.19;100.00
17054;BME280;8643;48.824;11.422;2023-08-20T00:39:03;97277.78;;;21.14;100.00
17054;BME280;8643;48.824;11.422;2023-08-20T00:41:31;97279.31;;;21.00;100.00
17054;BME280;8643;48.824;11.422;2023-08-20T00:44:00;97274.91;;;20.85;100.00
17054;BME280;8643;48.824;11.422;2023-08-20T00:46:29;97280.03;;;20.79;100.00
17054;BME280;8643;48.824;11.422;2023-08-20T00:48:58;97272.88;;;20.78;100.00
17054;BME280;8643;48.824;11.422;2023-08-20T00:51:27;97282.03;;;20.75;100.00
17054;BME280;8643;48.824;11.422;2023-08-20T00:53:58;97286.38;;;20.73;100.00
17054;BME280;8643;48.824;11.422;2023-08-20T00:56:26;97283.19;;;20.74;100.00
17054;BME280;8643;48.824;11.422;2023-08-20T00:58:55;97278.84;;;20.77;100.00
17054;BME280;8643;48.824;11.422;2023-08-20T01:01:25;97284.34;;;20.69;100.00
17054;BME280;8643;48.824;11.422;2023-08-20T01:03:54;97286.25;;;20.55;100.00
17054;BME280;8643;48.824;11.422;2023-08-20T01:06:33;97291.78;;;20.44;100.00
17054;BME280;8643;48.824;11.422;2023-08-20T01:09:17;97293.34;;;20.41;100.00
17054;BME280;8643;48.824;11.422;2023-08-20T01:11:57;97289.00;;;20.44;100.00
17054;BME280;8643;48.824;11.422;2023-08-20T01:14:29;97291.78;;;20.44;100.00
17054;BME280;8643;48.824;11.422;2023-08-20T01:16:58;97292.56;;;20.48;100.00
17054;BME280;8643;48.824;11.422;2023-08-20T01:19:27;97292.94;;;20.43;100.00
17054;BME280;8643;48.824;11.422;2023-08-20T01:25:12;97298.00;;;20.23;100.00
17054;BME280;8643;48.824;11.422;2023-08-20T01:27:58;97300.78;;;20.26;100.00
17054;BME280;8643;48.824;11.422;2023-08-20T01:30:32;97304.34;;;20.23;100.00
17054;BME280;8643;48.824;11.422;2023-08-20T01:33:01;97301.56;;;20.23;100.00
17054;BME280;8643;48.824;11.422;2023-08-20T01:35:30;97298.00;;;20.23;100.00
17054;BME280;8643;48.824;11.422;2023-08-20T01:38:03;97307.91;;;20.24;100.00
17054;BME280;8643;48.824;11.422;2023-08-20T01:40:32;97310.69;;;20.24;100.00
17054;BME280;8643;48.824;11.422;2023-08-20T01:43:00;97315.47;;;20.23;100.00
17054;BME280;8643;48.824;11.422;2023-08-20T01:45:30;97311.41;;;20.10;100.00
17054;BME280;8643;48.824;11.422;2023-08-20T01:47:58;97312.97;;;20.07;100.00
17054;BME280;8643;48.824;11.422;2023-08-20T01:50:27;97312.97;;;20.11;100.00
17054;BME280;8643;48.824;11.422;2023-08-20T01:52:56;97315.34;;;20.09;100.00
17054;BME280;8643;48.824;11.422;2023-08-20T01:55:24;97312.56;;;20.09;100.00
17054;BME280;8643;48.824;11.422;2023-08-20T01:57:56;97315.75;;;20.11;100.00
17054;BME280;8643;48.824;11.422;2023-08-20T02:00:25;97316.59;;;20.11;100.00
17054;BME280;8643;48.824;11.422;2023-08-20T02:02:59;97315.34;;;20.05;100.00
17054;BME280;8643;48.824;11.422;2023-08-20T02:05:27;97308.22;;;20.08;100.00
17054;BME280;8643;48.824;11.422;2023-08-20T02:07:57;97317.72;;;20.07;100.00
17054;BME280;8643;48.824;11.422;2023-08-20T02:10:25;97315.34;;;20.05;100.00
17054;BME280;8643;48.824;11.422;2023-08-20T02:12:53;97316.47;;;19.97;100.00
17054;BME280;8643;48.824;11.422;2023-08-20T02:15:22;97315.25;;;19.94;100.00
17054;BME280;8643;48.824;11.422;2023-08-20T02:17:50;97318.00;;;19.91;100.00
17054;BME280;8643;48.824;11.422;2023-08-20T02:20:20;97315.25;;;19.94;100.00
17054;BME280;8643;48.824;11.422;2023-08-20T02:22:50;97314.47;;;19.98;100.00
17054;BME280;8643;48.824;11.422;2023-08-20T02:25:18;97313.41;;;20.09;100.00
17054;BME280;8643;48.824;11.422;2023-08-20T02:27:47;97314.22;;;20.17;100.00
17054;BME280;8643;48.824;11.422;2023-08-20T02:30:15;97311.81;;;20.12;100.00
17054;BME280;8643;48.824;11.422;2023-08-20T02:32:44;97317.84;;;20.21;100.00
17054;BME280;8643;48.824;11.422;2023-08-20T02:35:12;97314.66;;;20.19;100.00
17054;BME280;8643;48.824;11.422;2023-08-20T02:37:44;97320.25;;;20.23;100.00
17054;BME280;8643;48.824;11.422;2023-08-20T02:40:12;97319.50;;;20.33;100.00
17054;BME280;8643;48.824;11.422;2023-08-20T02:42:41;97323.50;;;20.36;100.00
17054;BME280;8643;48.824;11.422;2023-08-20T02:45:10;97330.66;;;20.40;100.00
17054;BME280;8643;48.824;11.422;2023-08-20T02:47:38;97326.00;;;20.55;100.00
17054;BME280;8643;48.824;11.422;2023-08-20T02:50:07;97325.22;;;20.58;100.00
17054;BME280;8643;48.824;11.422;2023-08-20T02:52:36;97329.19;;;20.57;100.00
17054;BME280;8643;48.824;11.422;2023-08-20T02:55:06;97331.13;;;20.46;100.00
17054;BME280;8643;48.824;11.422;2023-08-20T02:57:35;97332.28;;;20.41;100.00
17054;BME280;8643;48.824;11.422;2023-08-20T03:00:05;97344.16;;;20.38;100.00
17054;BME280;8643;48.824;11.422;2023-08-20T03:02:37;97342.16;;;20.35;100.00
17054;BME280;8643;48.824;11.422;2023-08-20T03:05:08;97344.09;;;20.27;100.00
17054;BME280;8643;48.824;11.422;2023-08-20T03:07:37;97338.84;;;20.19;100.00
17054;BME280;8643;48.824;11.422;2023-08-20T03:10:08;97325.69;;;20.08;100.00
17054;BME280;8643;48.824;11.422;2023-08-20T03:12:37;97319.34;;;20.08;100.00
17054;BME280;8643;48.824;11.422;2023-08-20T03:15:07;97328.00;;;20.03;100.00
17054;BME280;8643;48.824;11.422;2023-08-20T03:17:36;97321.97;;;19.90;100.00
17054;BME280;8643;48.824;11.422;2023-08-20T03:20:07;97319.88;;;19.80;100.00
17054;BME280;8643;48.824;11.422;2023-08-20T03:22:38;97322.97;;;19.71;100.00
17054;BME280;8643;48.824;11.422;2023-08-20T03:25:08;97335.09;;;19.55;100.00
17054;BME280;8643;48.824;11.422;2023-08-20T03:27:37;97332.22;;;19.45;100.00
17054;BME280;8643;48.824;11.422;2023-08-20T03:30:07;97323.44;;;19.39;100.00
17054;BME280;8643;48.824;11.422;2023-08-20T03:32:35;97321.75;;;19.31;100.00
17054;BME280;8643;48.824;11.422;2023-08-20T03:35:05;97318.53;;;19.25;100.00
17054;BME280;8643;48.824;11.422;2023-08-20T03:37:33;97327.25;;;19.23;100.00
17054;BME280;8643;48.824;11.422;2023-08-20T03:40:03;97322.50;;;19.28;100.00
17054;BME280;8643;48.824;11.422;2023-08-20T03:42:33;97325.72;;;19.30;100.00
17054;BME280;8643;48.824;11.422;2023-08-20T03:45:04;97331.28;;;19.30;100.00
17054;BME280;8643;48.824;11.422;2023-08-20T03:47:32;97320.94;;;19.27;100.00
17054;BME280;8643;48.824;11.422;2023-08-20T03:50:02;97323.69;;;19.23;100.00
17054;BME280;8643;48.824;11.422;2023-08-20T03:52:30;97323.13;;;19.10;100.00
17054;BME280;8643;48.824;11.422;2023-08-20T03:54:59;97326.16;;;18.98;100.00
17054;BME280;8643;48.824;11.422;2023-08-20T03:57:27;97333.25;;;18.95;100.00
17054;BME280;8643;48.824;11.422;2023-08-20T03:59:57;97322.53;;;18.94;100.00
17054;BME280;8643;48.824;11.422;2023-08-20T04:02:26;97332.81;;;18.93;100.00
17054;BME280;8643;48.824;11.422;2023-08-20T04:04:58;97332.41;;;18.91;100.00
17054;BME280;8643;48.824;11.422;2023-08-20T04:07:27;97338.22;;;18.82;100.00
17054;BME280;8643;48.824;11.422;2023-08-20T04:09:55;97335.34;;;18.75;100.00
17054;BME280;8643;48.824;11.422;2023-08-20T04:12:24;97338.13;;;18.75;100.00
17054;BME280;8643;48.824;11.422;2023-08-20T04:14:57;97338.88;;;18.72;100.00
17054;BME280;8643;48.824;11.422;2023-08-20T04:17:25;97343.25;;;18.73;100.00
17054;BME280;8643;48.824;11.422;2023-08-20T04:19:54;97350.88;;;18.80;100.00
17054;BME280;8643;48.824;11.422;2023-08-20T04:22:23;97345.28;;;18.76;100.00
17054;BME280;8643;48.824;11.422;2023-08-20T04:24:52;97351.91;;;18.68;100.00
17054;BME280;8643;48.824;11.422;2023-08-20T04:27:20;97354.19;;;18.62;100.00
17054;BME280;8643;48.824;11.422;2023-08-20T04:29:49;97352.16;;;18.59;100.00
17054;BME280;8643;48.824;11.422;2023-08-20T04:32:19;97348.94;;;18.54;100.00
17054;BME280;8643;48.824;11.422;2023-08-20T04:34:49;97358.00;;;18.50;100.00
17054;BME280;8643;48.824;11.422;2023-08-20T04:37:20;97354.81;;;18.48;100.00
17054;BME280;8643;48.824;11.422;2023-08-20T04:39:49;97353.19;;;18.47;100.00
17054;BME280;8643;48.824;11.422;2023-08-20T04:42:17;97349.22;;;18.45;100.00
17054;BME280;8643;48.824;11.422;2023-08-20T04:44:46;97353.47;;;18.39;100.00
17054;BME280;8643;48.824;11.422;2023-08-20T04:47:15;97348.72;;;18.39;100.00
17054;BME280;8643;48.824;11.422;2023-08-20T04:49:45;97346.44;;;18.45;100.00
17054;BME280;8643;48.824;11.422;2023-08-20T04:52:13;97347.22;;;18.45;100.00
17054;BME280;8643;48.824;11.422;2023-08-20T04:54:42;97351.22;;;18.48;100.00
17054;BME280;8643;48.824;11.422;2023-08-20T04:57:10;97357.25;;;18.54;100.00
17054;BME280;8643;48.824;11.422;2023-08-20T04:59:39;97357.72;;;18.59;100.00
17054;BME280;8643;48.824;11.422;2023-08-20T05:02:28;97359.00;;;18.65;100.00
17054;BME280;8643;48.824;11.422;2023-08-20T05:05:03;97358.72;;;18.74;100.00
17054;BME280;8643;48.824;11.422;2023-08-20T05:07:32;97356.91;;;18.85;100.00
17054;BME280;8643;48.824;11.422;2023-08-20T05:10:00;97360.19;;;18.95;100.00
17054;BME280;8643;48.824;11.422;2023-08-20T05:12:29;97371.03;;;19.03;100.00
17054;BME280;8643;48.824;11.422;2023-08-20T05:14:58;97365.53;;;19.07;100.00
17054;BME280;8643;48.824;11.422;2023-08-20T05:17:26;97364.81;;;19.14;100.00
17054;BME280;8643;48.824;11.422;2023-08-20T05:19:57;97371.63;;;19.20;100.00
17054;BME280;8643;48.824;11.422;2023-08-20T05:22:27;97375.63;;;19.26;100.00
17054;BME280;8643;48.824;11.422;2023-08-20T05:24:56;97370.97;;;19.34;100.00
17054;BME280;8643;48.824;11.422;2023-08-20T05:27:26;97377.81;;;19.44;100.00
17054;BME280;8643;48.824;11.422;2023-08-20T05:29:57;97368.91;;;19.61;100.00
17054;BME280;8643;48.824;11.422;2023-08-20T05:32:25;97373.34;;;19.69;100.00
17054;BME280;8643;48.824;11.422;2023-08-20T05:34:53;97367.44;;;19.74;100.00
17054;BME280;8643;48.824;11.422;2023-08-20T05:37:22;97368.44;;;19.93;100.00
17054;BME280;8643;48.824;11.422;2023-08-20T05:39:52;97369.38;;;20.08;100.00
17054;BME280;8643;48.824;11.422;2023-08-20T05:42:20;97369.97;;;20.35;100.00
17054;BME280;8643;48.824;11.422;2023-08-20T05:44:57;97377.38;;;20.68;100.00
17054;BME280;8643;48.824;11.422;2023-08-20T05:47:28;97372.78;;;21.01;100.00
17054;BME280;8643;48.824;11.422;2023-08-20T05:49:57;97371.28;;;21.22;100.00
17054;BME280;8643;48.824;11.422;2023-08-20T05:52:25;97374.63;;;21.60;100.00
17054;BME280;8643;48.824;11.422;2023-08-20T05:54:55;97376.25;;;22.11;100.00
17054;BME280;8643;48.824;11.422;2023-08-20T05:57:23;97367.94;;;22.37;100.00
17054;BME280;8643;48.824;11.422;2023-08-20T05:59:52;97375.13;;;22.38;100.00
17054;BME280;8643;48.824;11.422;2023-08-20T06:02:20;97379.50;;;22.35;100.00
17054;BME280;8643;48.824;11.422;2023-08-20T06:04:49;97363.94;;;22.56;100.00
17054;BME280;8643;48.824;11.422;2023-08-20T06:07:18;97366.59;;;23.10;100.00
17054;BME280;8643;48.824;11.422;2023-08-20T06:09:47;97375.03;;;23.80;100.00
17054;BME280;8643;48.824;11.422;2023-08-20T06:12:18;97374.38;;;24.66;100.00
17054;BME280;8643;48.824;11.422;2023-08-20T06:14:47;97384.38;;;25.05;100.00
17054;BME280;8643;48.824;11.422;2023-08-20T06:17:16;97374.41;;;25.66;98.56
17054;BME280;8643;48.824;11.422;2023-08-20T06:19:44;97392.13;;;26.18;90.52
17054;BME280;8643;48.824;11.422;2023-08-20T06:22:13;97389.81;;;26.36;91.98
17054;BME280;8643;48.824;11.422;2023-08-20T06:24:42;97395.56;;;26.52;89.31
17054;BME280;8643;48.824;11.422;2023-08-20T06:27:10;97393.63;;;26.73;93.99
17054;BME280;8643;48.824;11.422;2023-08-20T06:29:41;97398.41;;;26.76;91.87
17054;BME280;8643;48.824;11.422;2023-08-20T06:32:09;97403.69;;;26.94;84.18
17054;BME280;8643;48.824;11.422;2023-08-20T06:34:37;97395.50;;;27.23;83.35
17054;BME280;8643;48.824;11.422;2023-08-20T06:37:06;97396.78;;;26.99;84.88
17054;BME280;8643;48.824;11.422;2023-08-20T06:39:34;97407.03;;;27.29;87.10
17054;BME280;8643;48.824;11.422;2023-08-20T06:42:03;97404.47;;;27.75;83.30
17054;BME280;8643;48.824;11.422;2023-08-20T06:44:31;97402.38;;;27.99;83.20
17054;BME280;8643;48.824;11.422;2023-08-20T06:47:01;97413.41;;;28.43;80.71
17054;BME280;8643;48.824;11.422;2023-08-20T06:49:29;97406.47;;;28.64;82.08
17054;BME280;8643;48.824;11.422;2023-08-20T06:51:58;97414.81;;;28.51;81.48
17054;BME280;8643;48.824;11.422;2023-08-20T06:54:27;97416.59;;;29.07;78.15
17054;BME280;8643;48.824;11.422;2023-08-20T06:56:55;97416.06;;;29.29;77.83
17054;BME280;8643;48.824;11.422;2023-08-20T06:59:24;97416.84;;;29.13;80.60
17054;BME280;8643;48.824;11.422;2023-08-20T07:01:52;97419.31;;;29.27;82.52
17054;BME280;8643;48.824;11.422;2023-08-20T07:04:23;97418.28;;;29.21;78.00
17054;BME280;8643;48.824;11.422;2023-08-20T07:06:51;97426.25;;;29.52;77.59
17054;BME280;8643;48.824;11.422;2023-08-20T07:09:20;97428.16;;;29.84;72.82
17054;BME280;8643;48.824;11.422;2023-08-20T07:11:49;97425.13;;;29.91;71.79
17054;BME280;8643;48.824;11.422;2023-08-20T07:14:17;97427.03;;;29.94;74.06
17054;BME280;8643;48.824;11.422;2023-08-20T07:16:46;97428.78;;;29.75;75.35
17054;BME280;8643;48.824;11.422;2023-08-20T07:19:14;97427.03;;;29.94;71.71
17054;BME280;8643;48.824;11.422;2023-08-20T07:21:44;97433.25;;;30.15;70.80
17054;BME280;8643;48.824;11.422;2023-08-20T07:24:12;97437.09;;;29.95;69.16
17054;BME280;8643;48.824;11.422;2023-08-20T07:26:40;97427.25;;;30.13;71.65
17054;BME280;8643;48.824;11.422;2023-08-20T07:29:09;97433.38;;;30.11;70.40
17054;BME280;8643;48.824;11.422;2023-08-20T07:31:38;97431.22;;;30.15;75.55
17054;BME280;8643;48.824;11.422;2023-08-20T07:34:07;97432.72;;;30.33;72.67
17054;BME280;8643;48.824;11.422;2023-08-20T07:36:39;97433.84;;;30.48;72.66
17054;BME280;8643;48.824;11.422;2023-08-20T07:39:09;97427.06;;;30.33;74.54
17054;BME280;8643;48.824;11.422;2023-08-20T07:41:37;97426.50;;;30.51;73.01
17054;BME280;8643;48.824;11.422;2023-08-20T07:44:06;97425.25;;;30.13;67.60
17054;BME280;8643;48.824;11.422;2023-08-20T07:46:34;97419.03;;;30.31;69.79
17054;BME280;8643;48.824;11.422;2023-08-20T07:49:03;97414.16;;;30.70;75.32
17054;BME280;8643;48.824;11.422;2023-08-20T07:51:32;97408.97;;;30.91;75.63
17054;BME280;8643;48.824;11.422;2023-08-20T07:54:00;97417.84;;;30.80;71.16
17054;BME280;8643;48.824;11.422;2023-08-20T07:56:30;97413.84;;;31.48;70.58
17054;BME280;8643;48.824;11.422;2023-08-20T07:58:58;97410.91;;;31.29;67.75
17054;BME280;8643;48.824;11.422;2023-08-20T08:01:26;97413.97;;;31.57;69.89
17054;BME280;8643;48.824;11.422;2023-08-20T08:03:55;97422.22;;;31.51;69.46
17054;BME280;8643;48.824;11.422;2023-08-20T08:06:23;97421.50;;;31.60;65.25
17054;BME280;8643;48.824;11.422;2023-08-20T08:08:52;97433.66;;;31.48;70.83
17054;BME280;8643;48.824;11.422;2023-08-20T08:11:20;97424.84;;;31.68;68.58
17054;BME280;8643;48.824;11.422;2023-08-20T08:13:50;97438.19;;;32.52;67.14
17054;BME280;8643;48.824;11.422;2023-08-20T08:16:18;97439.28;;;32.55;64.34
17054;BME280;8643;48.824;11.422;2023-08-20T08:18:49;97445.78;;;32.64;65.29
17054;BME280;8643;48.824;11.422;2023-08-20T08:21:17;97449.69;;;33.17;61.48
17054;BME280;8643;48.824;11.422;2023-08-20T08:23:46;97450.91;;;33.16;59.56
17054;BME280;8643;48.824;11.422;2023-08-20T08:26:14;97448.88;;;33.07;62.82
17054;BME280;8643;48.824;11.422;2023-08-20T08:28:42;97446.22;;;33.50;55.12
17054;BME280;8643;48.824;11.422;2023-08-20T08:31:12;97451.72;;;33.63;57.03
17054;BME280;8643;48.824;11.422;2023-08-20T08:33:41;97445.91;;;33.48;62.38
17054;BME280;8643;48.824;11.422;2023-08-20T08:36:09;97449.38;;;33.24;60.19
17054;BME280;8643;48.824;11.422;2023-08-20T08:38:38;97445.56;;;33.64;56.19
17054;BME280;8643;48.824;11.422;2023-08-20T08:41:12;97447.31;;;33.71;61.45
17054;BME280;8643;48.824;11.422;2023-08-20T08:43:41;97443.38;;;33.40;56.49
17054;BME280;8643;48.824;11.422;2023-08-20T08:46:14;97452.34;;;33.76;58.89
17054;BME280;8643;48.824;11.422;2023-08-20T08:48:45;97452.94;;;33.80;56.95
17054;BME280;8643;48.824;11.422;2023-08-20T08:51:14;97458.13;;;34.00;61.21
17054;BME280;8643;48.824;11.422;2023-08-20T08:53:43;97453.69;;;34.08;54.00
17054;BME280;8643;48.824;11.422;2023-08-20T08:56:12;97460.59;;;34.26;54.14
17054;BME280;8643;48.824;11.422;2023-08-20T08:58:40;97462.28;;;34.66;55.43
17054;BME280;8643;48.824;11.422;2023-08-20T09:01:09;97462.56;;;34.77;50.23
17054;BME280;8643;48.824;11.422;2023-08-20T09:03:39;97470.19;;;35.19;48.37
17054;BME280;8643;48.824;11.422;2023-08-20T09:06:09;97463.22;;;34.72;47.66
17054;BME280;8643;48.824;11.422;2023-08-20T09:08:38;97461.88;;;34.25;49.93
17054;BME280;8643;48.824;11.422;2023-08-20T09:11:06;97465.34;;;34.53;55.87
17054;BME280;8643;48.824;11.422;2023-08-20T09:13:37;97460.47;;;35.11;49.26
17054;BME280;8643;48.824;11.422;2023-08-20T09:16:07;97464.16;;;35.27;50.99
17054;BME280;8643;48.824;11.422;2023-08-20T09:18:40;97474.25;;;35.03;51.14
17054;BME280;8643;48.824;11.422;2023-08-20T09:21:11;97462.22;;;35.33;47.84
17054;BME280;8643;48.824;11.422;2023-08-20T09:23:40;97454.53;;;35.24;51.84
17054;BME280;8643;48.824;11.422;2023-08-20T09:26:08;97465.53;;;35.31;47.63
17054;BME280;8643;48.824;11.422;2023-08-20T09:28:42;97466.03;;;35.30;49.06
17054;BME280;8643;48.824;11.422;2023-08-20T09:31:11;97453.38;;;35.31;50.76
17054;BME280;8643;48.824;11.422;2023-08-20T09:33:50;97456.84;;;35.11;60.87
17054;BME280;8643;48.824;11.422;2023-08-20T09:36:30;97461.72;;;35.10;53.25
17054;BME280;8643;48.824;11.422;2023-08-20T09:38:59;97457.19;;;35.82;50.41
17054;BME280;8643;48.824;11.422;2023-08-20T09:41:28;97462.19;;;35.72;58.72
17054;BME280;8643;48.824;11.422;2023-08-20T09:43:58;97468.91;;;35.99;57.45
17054;BME280;8643;48.824;11.422;2023-08-20T09:46:31;97459.75;;;34.68;48.09
17054;BME280;8643;48.824;11.422;2023-08-20T09:49:02;97457.84;;;35.61;48.14
17054;BME280;8643;48.824;11.422;2023-08-20T09:51:35;97460.19;;;35.48;45.91
17054;BME280;8643;48.824;11.422;2023-08-20T09:54:16;97457.22;;;36.26;45.93
17054;BME280;8643;48.824;11.422;2023-08-20T09:56:54;97464.13;;;36.55;44.53
17054;BME280;8643;48.824;11.422;2023-08-20T09:59:27;97463.78;;;36.18;44.38
17054;BME280;8643;48.824;11.422;2023-08-20T10:01:56;97464.78;;;35.85;44.79
17054;BME280;8643;48.824;11.422;2023-08-20T10:04:27;97459.56;;;35.83;45.67
17054;BME280;8643;48.824;11.422;2023-08-20T10:06:58;97465.38;;;35.89;42.31
17054;BME280;8643;48.824;11.422;2023-08-20T10:09:27;97464.38;;;36.07;45.09
17054;BME280;8643;48.824;11.422;2023-08-20T10:11:56;97463.56;;;36.21;44.54
17054;BME280;8643;48.824;11.422;2023-08-20T10:14:24;97464.97;;;36.11;44.91
17054;BME280;8643;48.824;11.422;2023-08-20T10:16:53;97462.63;;;36.24;44.74
17054;BME280;8643;48.824;11.422;2023-08-20T10:19:22;97469.09;;;36.40;44.12
17054;BME280;8643;48.824;11.422;2023-08-20T10:21:56;97467.03;;;36.40;46.39
17054;BME280;8643;48.824;11.422;2023-08-20T10:24:24;97469.25;;;36.21;46.71
17054;BME280;8643;48.824;11.422;2023-08-20T10:27:09;97465.81;;;36.47;44.99
17054;BME280;8643;48.824;11.422;2023-08-20T10:29:39;97469.09;;;36.40;41.47
17054;BME280;8643;48.824;11.422;2023-08-20T10:32:10;97460.06;;;36.26;46.82
17054;BME280;8643;48.824;11.422;2023-08-20T10:34:43;97459.34;;;36.46;41.61
17054;BME280;8643;48.824;11.422;2023-08-20T10:37:26;97464.72;;;36.59;47.33
17054;BME280;8643;48.824;11.422;2023-08-20T10:39:56;97470.31;;;36.54;43.02
17054;BME280;8643;48.824;11.422;2023-08-20T10:42:28;97467.56;;;36.59;44.60
17054;BME280;8643;48.824;11.422;2023-08-20T10:44:58;97464.56;;;35.88;42.52
17054;BME280;8643;48.824;11.422;2023-08-20T10:47:42;97464.28;;;35.86;45.49
17054;BME280;8643;48.824;11.422;2023-08-20T10:50:15;97468.09;;;35.83;46.94
17054;BME280;8643;48.824;11.422;2023-08-20T10:52:50;97468.91;;;35.99;45.91
17054;BME280;8643;48.824;11.422;2023-08-20T10:55:23;97461.31;;;35.27;45.22
17054;BME280;8643;48.824;11.422;2023-08-20T10:57:55;97452.13;;;35.08;44.15
17054;BME280;8643;48.824;11.422;2023-08-20T11:00:25;97452.97;;;35.92;45.17
17054;BME280;8643;48.824;11.422;2023-08-20T11:02:55;97448.41;;;35.55;40.35
17054;BME280;8643;48.824;11.422;2023-08-20T11:05:24;97450.53;;;36.00;42.95
17054;BME280;8643;48.824;11.422;2023-08-20T11:07:54;97451.22;;;35.94;44.87
17054;BME280;8643;48.824;11.422;2023-08-20T11:10:23;97445.09;;;35.72;42.11
17054;BME280;8643;48.824;11.422;2023-08-20T11:12:52;97444.53;;;36.27;44.12
17054;BME280;8643;48.824;11.422;2023-08-20T11:15:20;97444.50;;;36.42;42.38
17054;BME280;8643;48.824;11.422;2023-08-20T11:17:49;97439.22;;;36.20;40.55
17054;BME280;8643;48.824;11.422;2023-08-20T11:20:19;97448.25;;;36.33;43.02
17054;BME280;8643;48.824;11.422;2023-08-20T11:22:48;97440.31;;;36.58;42.52
17054;BME280;8643;48.824;11.422;2023-08-20T11:25:18;97444.44;;;36.57;42.85
17054;BME280;8643;48.824;11.422;2023-08-20T11:27:46;97444.75;;;35.79;41.48
17054;BME280;8643;48.824;11.422;2023-08-20T11:30:15;97447.28;;;35.92;40.01
17054;BME280;8643;48.824;11.422;2023-08-20T11:32:44;97442.22;;;35.57;40.52
17054;BME280;8643;48.824;11.422;2023-08-20T11:35:13;97439.59;;;36.13;40.12
17054;BME280;8643;48.824;11.422;2023-08-20T11:37:43;97432.44;;;36.03;41.63
17054;BME280;8643;48.824;11.422;2023-08-20T11:40:11;97439.72;;;36.04;41.30
17054;BME280;8643;48.824;11.422;2023-08-20T11:42:41;97444.88;;;35.60;41.34
17054;BME280;8643;48.824;11.422;2023-08-20T11:45:10;97438.25;;;35.93;41.17
17054;BME280;8643;48.824;11.422;2023-08-20T11:47:39;97438.25;;;36.08;39.70
17054;BME280;8643;48.824;11.422;2023-08-20T11:50:09;97432.13;;;36.30;39.99
17054;BME280;8643;48.824;11.422;2023-08-20T11:52:39;97425.47;;;36.19;37.36
17054;BME280;8643;48.824;11.422;2023-08-20T11:55:08;97427.41;;;36.27;37.50
17054;BME280;8643;48.824;11.422;2023-08-20T11:57:37;97429.38;;;36.36;39.21
17054;BME280;8643;48.824;11.422;2023-08-20T12:00:08;97428.13;;;36.58;38.05
17054;BME280;8643;48.824;11.422;2023-08-20T12:02:43;97429.00;;;36.28;40.85
17054;BME280;8643;48.824;11.422;2023-08-20T12:05:12;97426.66;;;36.27;43.04
17054;BME280;8643;48.824;11.422;2023-08-20T12:07:41;97420.84;;;36.06;44.22
17054;BME280;8643;48.824;11.422;2023-08-20T12:10:23;97418.31;;;36.08;45.02
17054;BME280;8643;48.824;11.422;2023-08-20T12:12:51;97422.28;;;36.46;38.95
17054;BME280;8643;48.824;11.422;2023-08-20T12:15:22;97419.69;;;35.83;37.62
17054;BME280;8643;48.824;11.422;2023-08-20T12:17:59;97412.34;;;34.98;39.05
17054;BME280;8643;48.824;11.422;2023-08-20T12:20:29;97417.34;;;35.28;38.55
17054;BME280;8643;48.824;11.422;2023-08-20T12:23:00;97410.91;;;35.03;38.30
17054;BME280;8643;48.824;11.422;2023-08-20T12:25:31;97405.88;;;34.98;38.90
17054;BME280;8643;48.824;11.422;2023-08-20T12:28:01;97403.88;;;34.89;39.33
17054;BME280;8643;48.824;11.422;2023-08-20T12:30:32;97404.91;;;35.01;45.48
17054;BME280;8643;48.824;11.422;2023-08-20T12:33:05;97401.59;;;35.02;37.47
17054;BME280;8643;48.824;11.422;2023-08-20T12:35:34;97402.47;;;35.48;41.57
17054;BME280;8643;48.824;11.422;2023-08-20T12:38:03;97401.88;;;35.73;42.53
17054;BME280;8643;48.824;11.422;2023-08-20T12:40:32;97396.78;;;34.84;39.93
17054;BME280;8643;48.824;11.422;2023-08-20T12:43:00;97390.91;;;35.12;36.71
17054;BME280;8643;48.824;11.422;2023-08-20T12:45:29;97389.09;;;35.00;45.29
17054;BME280;8643;48.824;11.422;2023-08-20T12:47:59;97391.09;;;34.36;41.69
17054;BME280;8643;48.824;11.422;2023-08-20T12:50:29;97389.91;;;34.76;41.43
17054;BME280;8643;48.824;11.422;2023-08-20T12:52:57;97387.41;;;34.93;39.84
17054;BME280;8643;48.824;11.422;2023-08-20T12:55:26;97383.94;;;34.65;39.16
17054;BME280;8643;48.824;11.422;2023-08-20T12:57:56;97381.03;;;34.26;38.44
17054;BME280;8643;48.824;11.422;2023-08-20T13:00:26;97375.50;;;34.56;41.74
17054;BME280;8643;48.824;11.422;2023-08-20T13:02:55;97373.56;;;34.86;43.77
17054;BME280;8643;48.824;11.422;2023-08-20T13:05:27;97375.84;;;34.73;41.02
17054;BME280;8643;48.824;11.422;2023-08-20T13:07:56;97370.09;;;34.58;38.61
17054;BME280;8643;48.824;11.422;2023-08-20T13:10:26;97380.25;;;34.49;39.05
17054;BME280;8643;48.824;11.422;2023-08-20T13:13:01;97377.38;;;33.83;38.45